Time;durP1;ratioP1;P1;durP2;ratioP2;P2;SDS_P1;SDS_P2;PMS_P1;PMS_P2;Temp;Humidity;BMP_temperature;BMP_pressure;BME280_temperature;BME280_humidity;BME280_pressure;Samples;Min_cycle;Max_cycle;Signal;HPM_P1;HPM_P2
2021/05/03 00:00:50;;;;;;;2.80;1.80;;;5.00;99.90;;;;;;5083976;28;20078;-82
2021/05/03 00:03:18;;;;;;;2.38;1.60;;;5.00;99.90;;;;;;5085766;28;20028;-82
2021/05/03 00:05:55;;;;;;;2.28;1.60;;;5.00;99.90;;;;;;5084891;28;20016;-82
2021/05/03 00:08:23;;;;;;;2.35;1.60;;;5.10;99.90;;;;;;5076260;28;20020;-82
2021/05/03 00:10:49;;;;;;;2.80;1.90;;;5.10;99.90;;;;;;5061547;28;20095;-82
2021/05/03 00:13:16;;;;;;;3.38;1.50;;;5.00;99.90;;;;;;5067344;28;20477;-82
2021/05/03 00:15:43;;;;;;;2.72;1.73;;;5.00;99.90;;;;;;5069560;28;20120;-82
2021/05/03 00:18:12;;;;;;;3.05;1.65;;;5.00;99.90;;;;;;5088753;28;20070;-82
2021/05/03 00:20:39;;;;;;;2.80;1.95;;;5.00;99.90;;;;;;5089034;28;20494;-81
2021/05/03 00:23:05;;;;;;;3.08;1.90;;;5.00;99.90;;;;;;5087684;28;20149;-82
2021/05/03 00:25:31;;;;;;;3.25;2.10;;;5.00;99.90;;;;;;5086286;28;20063;-82
2021/05/03 00:28:01;;;;;;;2.92;1.80;;;4.90;99.90;;;;;;5056731;28;20048;-82
2021/05/03 00:30:32;;;;;;;3.67;1.67;;;4.90;99.90;;;;;;5071630;28;20020;-81
2021/05/03 00:33:01;;;;;;;2.33;1.50;;;4.90;99.90;;;;;;5065679;28;20029;-82
2021/05/03 00:35:32;;;;;;;3.03;1.50;;;4.80;99.90;;;;;;5066063;28;20036;-81
2021/05/03 00:38:00;;;;;;;3.17;2.00;;;4.80;99.90;;;;;;5073618;28;20062;-81
2021/05/03 00:40:26;;;;;;;5.72;2.13;;;4.80;99.90;;;;;;5068567;28;20138;-81
2021/05/03 00:42:52;;;;;;;3.05;2.55;;;4.80;99.90;;;;;;5065863;28;20115;-83
2021/05/03 00:45:23;;;;;;;2.85;1.75;;;4.70;99.90;;;;;;5065427;28;20128;-81
2021/05/03 00:47:50;;;;;;;3.17;1.90;;;4.70;99.90;;;;;;5066234;28;20494;-80
2021/05/03 00:50:18;;;;;;;4.75;1.98;;;4.70;99.90;;;;;;5064976;28;20105;-81
2021/05/03 00:52:45;;;;;;;3.28;1.83;;;4.70;99.90;;;;;;5086218;28;20128;-81
2021/05/03 00:55:12;;;;;;;4.25;2.40;;;4.70;99.90;;;;;;5079050;28;20032;-80
2021/05/03 00:57:39;;;;;;;4.18;1.70;;;4.70;99.90;;;;;;5076531;28;20024;-82
2021/05/03 01:00:10;;;;;;;3.42;2.00;;;4.60;99.90;;;;;;5071301;28;20430;-82
2021/05/03 01:02:39;;;;;;;;;;;4.60;99.90;;;;;;5086447;28;20394;-81
2021/05/03 01:05:07;;;;;;;4.07;1.90;;;4.60;99.90;;;;;;5079668;28;19908;-81
2021/05/03 01:07:36;;;;;;;2.70;1.75;;;4.60;99.90;;;;;;5066814;28;20020;-81
2021/05/03 01:10:08;;;;;;;3.33;2.38;;;4.70;99.90;;;;;;5077474;28;20063;-80
2021/05/03 01:12:34;;;;;;;3.35;2.30;;;4.80;99.90;;;;;;5069636;28;20496;-81
2021/05/03 01:15:00;;;;;;;3.83;2.33;;;4.80;99.90;;;;;;5067034;28;20120;-81
2021/05/03 01:17:32;;;;;;;4.72;2.60;;;4.80;99.90;;;;;;5067249;28;20020;-81
2021/05/03 01:20:10;;;;;;;5.43;2.00;;;4.80;99.90;;;;;;5080890;28;20662;-81
2021/05/03 01:22:40;;;;;;;4.53;2.55;;;4.80;99.90;;;;;;5068384;28;20037;-81
2021/05/03 01:25:07;;;;;;;2.72;2.00;;;4.70;99.90;;;;;;5082106;28;20030;-81
2021/05/03 01:27:34;;;;;;;3.83;2.08;;;4.60;99.90;;;;;;5067774;28;20404;-82
2021/05/03 01:30:05;;;;;;;4.00;2.38;;;4.60;99.90;;;;;;5079921;28;20103;-81
2021/05/03 01:32:37;;;;;;;4.95;2.58;;;4.50;99.90;;;;;;5084852;28;20036;-81
2021/05/03 01:35:04;;;;;;;6.22;2.65;;;4.50;99.90;;;;;;5082379;28;20021;-80
2021/05/03 01:37:34;;;;;;;4.10;2.17;;;4.50;99.90;;;;;;5068074;28;20077;-81
2021/05/03 01:40:04;;;;;;;3.75;2.55;;;4.50;99.90;;;;;;5080715;28;20060;-81
2021/05/03 01:42:31;;;;;;;3.20;2.17;;;4.50;99.90;;;;;;5070295;28;20024;-81
2021/05/03 01:44:59;;;;;;;4.05;2.58;;;4.50;99.90;;;;;;5085745;28;20021;-82
2021/05/03 01:47:28;;;;;;;4.40;2.75;;;4.50;99.90;;;;;;5093586;28;20020;-83
2021/05/03 01:49:56;;;;;;;3.30;2.30;;;4.50;99.90;;;;;;5092687;28;20051;-84
2021/05/03 01:52:22;;;;;;;4.72;2.40;;;4.40;99.90;;;;;;5081151;28;20400;-83
2021/05/03 01:54:49;;;;;;;3.65;2.42;;;4.40;99.90;;;;;;5079504;28;20066;-83
2021/05/03 01:57:22;;;;;;;5.78;2.60;;;4.30;99.90;;;;;;5082811;28;20055;-81
2021/05/03 01:59:52;;;;;;;4.15;2.53;;;4.30;99.90;;;;;;5083725;28;20464;-82
2021/05/03 02:02:18;;;;;;;3.45;2.25;;;4.30;99.90;;;;;;5085651;28;20020;-82
2021/05/03 02:04:45;;;;;;;3.90;2.65;;;4.20;99.90;;;;;;5085179;28;20094;-81
2021/05/03 02:07:14;;;;;;;4.75;2.78;;;4.20;99.90;;;;;;5085730;28;20020;-81
2021/05/03 02:09:45;;;;;;;3.95;2.72;;;4.20;99.90;;;;;;5079795;28;20538;-83
2021/05/03 02:12:12;;;;;;;4.63;2.85;;;4.10;99.90;;;;;;5074781;28;20384;-81
2021/05/03 02:14:41;;;;;;;4.57;3.35;;;4.10;99.90;;;;;;5073384;28;20017;-81
2021/05/03 02:17:09;;;;;;;4.65;3.00;;;4.10;99.90;;;;;;5075696;28;20025;-82
2021/05/03 02:19:35;;;;;;;5.40;3.15;;;4.10;99.90;;;;;;5074527;28;20099;-82
2021/05/03 02:22:01;;;;;;;4.70;3.20;;;4.00;99.90;;;;;;5074245;28;20032;-82
2021/05/03 02:24:28;;;;;;;5.85;3.28;;;4.00;99.90;;;;;;5076033;28;20056;-82
2021/05/03 02:26:54;;;;;;;3.97;3.08;;;4.00;99.90;;;;;;5074107;28;20021;-82
2021/05/03 02:29:20;;;;;;;6.47;3.60;;;4.00;99.90;;;;;;5074331;28;20033;-82
2021/05/03 02:31:53;;;;;;;4.57;2.88;;;4.00;99.90;;;;;;5057717;28;20094;-83
2021/05/03 02:34:24;;;;;;;4.60;3.53;;;3.90;99.90;;;;;;5075344;28;20036;-82
2021/05/03 02:36:56;;;;;;;5.57;3.30;;;4.00;99.90;;;;;;5074539;28;20020;-82
2021/05/03 02:39:25;;;;;;;4.82;2.90;;;3.90;99.90;;;;;;5072934;28;20032;-82
2021/05/03 02:41:51;;;;;;;4.88;3.40;;;3.90;99.90;;;;;;5074156;28;20020;-83
2021/05/03 02:44:24;;;;;;;4.80;3.63;;;3.90;99.90;;;;;;5057658;28;20519;-83
2021/05/03 02:46:54;;;;;;;6.28;3.30;;;3.90;99.90;;;;;;5057345;28;20075;-83
2021/05/03 02:49:23;;;;;;;5.47;3.22;;;3.90;99.90;;;;;;5073916;28;20119;-83
2021/05/03 02:51:52;;;;;;;5.95;3.55;;;3.90;99.90;;;;;;5073625;28;20097;-83
2021/05/03 02:54:20;;;;;;;5.15;3.42;;;3.90;99.90;;;;;;5072901;28;20021;-83
2021/05/03 02:56:52;;;;;;;4.47;3.20;;;3.90;99.90;;;;;;5071350;28;20030;-82
2021/05/03 02:59:21;;;;;;;6.03;3.22;;;3.90;99.90;;;;;;5075009;28;20388;-82
2021/05/03 03:01:50;;;;;;;5.70;3.92;;;3.90;99.90;;;;;;5073805;28;20020;-82
2021/05/03 03:04:17;;;;;;;4.68;3.42;;;3.90;99.90;;;;;;5073820;28;20016;-82
2021/05/03 03:06:47;;;;;;;6.07;4.07;;;3.90;99.90;;;;;;5073618;28;20021;-83
2021/05/03 03:09:20;;;;;;;5.35;4.05;;;3.80;99.90;;;;;;5073662;28;20465;-82
2021/05/03 03:11:47;;;;;;;7.57;4.25;;;3.90;99.90;;;;;;5073422;28;20523;-82
2021/05/03 03:14:18;;;;;;;5.63;3.53;;;3.80;99.90;;;;;;5073723;28;20483;-82
2021/05/03 03:16:51;;;;;;;6.43;4.43;;;3.80;99.90;;;;;;5073615;28;20074;-82
2021/05/03 03:19:25;;;;;;;7.90;4.43;;;3.70;99.90;;;;;;5074454;28;20017;-82
2021/05/03 03:21:51;;;;;;;8.63;4.43;;;3.70;99.90;;;;;;5073118;28;20035;-82
2021/05/03 03:24:26;;;;;;;6.20;4.32;;;3.60;99.90;;;;;;5072897;28;20035;-82
2021/05/03 03:26:56;;;;;;;6.28;4.20;;;3.60;99.90;;;;;;5074383;28;20432;-82
2021/05/03 03:29:26;;;;;;;5.82;4.32;;;3.50;99.90;;;;;;5073068;28;20032;-82
2021/05/03 03:31:56;;;;;;;6.68;4.57;;;3.50;99.90;;;;;;5073215;28;20094;-83
2021/05/03 03:34:26;;;;;;;6.88;3.97;;;3.50;99.90;;;;;;5072579;28;20016;-82
2021/05/03 03:37:01;;;;;;;6.95;4.63;;;3.50;99.90;;;;;;5074006;28;20487;-82
2021/05/03 03:39:33;;;;;;;5.78;3.83;;;3.40;99.90;;;;;;5057115;28;20085;-81
2021/05/03 03:42:06;;;;;;;6.00;4.22;;;3.40;99.90;;;;;;5072831;28;20115;-82
2021/05/03 03:44:39;;;;;;;6.38;4.25;;;3.40;99.90;;;;;;5056753;28;20025;-81
2021/05/03 03:47:05;;;;;;;6.82;3.97;;;3.40;99.90;;;;;;5056421;28;20028;-82
2021/05/03 03:49:44;;;;;;;;;;;3.40;99.90;;;;;;5074123;28;20028;-82
2021/05/03 03:52:13;;;;;;;7.00;3.65;;;3.40;99.90;;;;;;5072532;28;20007;-81
2021/05/03 03:54:44;;;;;;;6.25;4.13;;;3.40;99.90;;;;;;5072887;28;20210;-82
2021/05/03 03:57:26;;;;;;;6.85;4.57;;;3.40;99.90;;;;;;5072699;28;20353;-82
2021/05/03 03:59:57;;;;;;;5.53;3.78;;;3.50;99.90;;;;;;5072639;28;20028;-82
2021/05/03 04:02:28;;;;;;;7.05;4.20;;;3.60;99.90;;;;;;5072719;28;20017;-83
2021/05/03 04:21:19;;;;;;;9.52;6.15;;;3.90;99.90;;;;;;5073693;28;20508;-81
2021/05/03 04:23:53;;;;;;;8.52;5.97;;;3.90;99.90;;;;;;5072259;28;20037;-83
2021/05/03 04:26:27;;;;;;;9.88;6.88;;;4.00;99.90;;;;;;5072329;28;20504;-83
2021/05/03 04:28:54;;;;;;;8.18;6.30;;;4.00;99.90;;;;;;5073898;28;20127;-83
2021/05/03 04:31:29;;;;;;;9.52;6.63;;;4.00;99.90;;;;;;5072219;28;20499;-83
2021/05/03 04:33:58;;;;;;;9.10;7.15;;;4.10;99.90;;;;;;5072194;28;20618;-83
2021/05/03 04:36:25;;;;;;;8.60;6.28;;;4.10;99.90;;;;;;5071976;28;20488;-84
2021/05/03 04:38:51;;;;;;;13.07;7.50;;;4.10;99.90;;;;;;5072227;28;20021;-83
2021/05/03 04:41:17;;;;;;;10.48;7.45;;;4.20;99.90;;;;;;5072004;28;20464;-84
2021/05/03 04:43:43;;;;;;;10.27;7.35;;;4.20;99.90;;;;;;5072036;28;20111;-83
2021/05/03 04:46:09;;;;;;;10.18;7.18;;;4.30;99.90;;;;;;5072939;28;20438;-84
2021/05/03 04:48:39;;;;;;;9.38;7.45;;;4.30;99.90;;;;;;5071570;28;20060;-83
2021/05/03 04:51:08;;;;;;;10.73;7.68;;;4.40;99.90;;;;;;5071776;28;20032;-84
2021/05/03 04:53:44;;;;;;;10.40;8.05;;;4.40;99.90;;;;;;5072079;28;20040;-84
2021/05/03 04:56:11;;;;;;;10.75;8.70;;;4.50;99.90;;;;;;5055624;28;20078;-82
2021/05/03 04:58:42;;;;;;;11.88;8.30;;;4.50;99.90;;;;;;5055061;28;20495;-82
2021/05/03 05:01:13;;;;;;;13.50;8.93;;;4.50;99.90;;;;;;5074817;28;20542;-83
2021/05/03 05:03:48;;;;;;;13.35;8.75;;;4.50;99.90;;;;;;5073460;28;20493;-82
2021/05/03 05:06:17;;;;;;;11.38;8.88;;;4.60;99.90;;;;;;5069952;28;20028;-82
2021/05/03 05:08:45;;;;;;;12.52;8.15;;;4.60;99.90;;;;;;5069295;28;20032;-82
2021/05/03 05:11:11;;;;;;;9.10;7.43;;;4.70;99.90;;;;;;5068294;28;20028;-82
2021/05/03 05:14:02;;;;;;;11.63;8.55;;;4.70;99.90;;;;;;5069229;28;20116;-85
2021/05/03 05:16:28;;;;;;;12.25;8.20;;;4.80;99.90;;;;;;5069863;28;20060;-83
2021/05/03 05:19:06;;;;;;;12.38;8.50;;;4.80;99.90;;;;;;5061916;28;20501;-84
2021/05/03 05:21:36;;;;;;;12.30;8.60;;;4.90;99.90;;;;;;5092878;28;20414;-83
2021/05/03 05:24:15;;;;;;;10.55;7.78;;;4.90;99.90;;;;;;5094226;28;20027;-84
2021/05/03 05:26:52;;;;;;;10.65;8.52;;;4.90;99.90;;;;;;5084015;28;20032;-83
2021/05/03 05:29:25;;;;;;;12.20;8.15;;;4.90;99.90;;;;;;5072070;28;20121;-84
2021/05/03 05:31:53;;;;;;;12.52;8.00;;;4.90;99.90;;;;;;5072968;28;20449;-83
2021/05/03 05:34:19;;;;;;;12.32;8.23;;;5.00;99.90;;;;;;5077287;28;20033;-83
2021/05/03 05:36:49;;;;;;;12.35;8.30;;;5.10;99.90;;;;;;5073637;28;20075;-82
2021/05/03 05:39:15;;;;;;;12.32;9.32;;;5.10;99.90;;;;;;5073365;28;20465;-84
2021/05/03 05:41:44;;;;;;;10.65;8.48;;;5.10;99.90;;;;;;5085499;28;20013;-83
2021/05/03 05:44:12;;;;;;;12.73;8.65;;;5.20;99.90;;;;;;5072445;28;20051;-84
2021/05/03 05:46:43;;;;;;;12.70;8.32;;;5.30;99.90;;;;;;5090188;28;20085;-84
2021/05/03 05:49:11;;;;;;;10.45;8.02;;;5.40;99.90;;;;;;5078224;28;20040;-84
2021/05/03 05:51:48;;;;;;;15.68;9.20;;;5.40;99.90;;;;;;5086333;28;20097;-84
2021/05/03 05:54:19;;;;;;;9.70;7.68;;;5.40;99.90;;;;;;5088986;28;20099;-84
2021/05/03 05:56:45;;;;;;;9.25;7.53;;;5.50;99.90;;;;;;5077630;28;20025;-84
2021/05/03 05:59:14;;;;;;;12.05;8.18;;;5.50;99.90;;;;;;5078927;28;20077;-84
2021/05/03 06:01:55;;;;;;;10.10;8.00;;;5.50;99.90;;;;;;5086375;28;20063;-84
2021/05/03 06:04:26;;;;;;;10.95;8.35;;;5.60;99.90;;;;;;5088932;28;20028;-84
2021/05/03 06:06:58;;;;;;;10.57;7.88;;;5.60;99.90;;;;;;5078194;28;20020;-84
2021/05/03 06:09:33;;;;;;;11.35;8.02;;;5.70;99.90;;;;;;5088314;28;20111;-84
2021/05/03 06:12:09;;;;;;;15.10;7.45;;;5.70;99.90;;;;;;5085597;28;20062;-84
2021/05/03 06:14:44;;;;;;;9.43;7.45;;;5.80;99.90;;;;;;5078951;28;20027;-85
2021/05/03 06:17:15;;;;;;;13.40;7.57;;;5.90;99.90;;;;;;5073427;28;20024;-84
2021/05/03 06:19:45;;;;;;;11.20;7.78;;;5.90;99.90;;;;;;5094211;28;20413;-83
2021/05/03 06:22:30;;;;;;;11.38;8.07;;;6.00;99.90;;;;;;5095753;28;20034;-84
2021/05/03 06:25:02;;;;;;;11.23;8.00;;;6.00;99.90;;;;;;5075430;28;20074;-84
2021/05/03 06:27:28;;;;;;;12.65;8.70;;;6.00;99.90;;;;;;5074529;28;20041;-84
2021/05/03 06:30:03;;;;;;;12.30;8.02;;;6.10;99.90;;;;;;5085534;28;20591;-83
2021/05/03 06:32:38;;;;;;;10.45;7.30;;;6.20;99.90;;;;;;5078724;28;20056;-84
2021/05/03 06:35:05;;;;;;;10.30;7.30;;;6.30;99.90;;;;;;5090675;28;20035;-83
2021/05/03 06:37:34;;;;;;;10.23;7.60;;;6.40;99.90;;;;;;5077773;28;20549;-83
2021/05/03 06:40:07;;;;;;;9.80;7.18;;;6.50;99.90;;;;;;5079269;28;20039;-84
2021/05/03 06:42:36;;;;;;;9.52;7.18;;;6.60;99.90;;;;;;5087922;28;20122;-84
2021/05/03 06:45:07;;;;;;;9.45;7.22;;;6.70;99.90;;;;;;5077102;28;20012;-84
2021/05/03 06:47:33;;;;;;;9.85;7.40;;;6.70;99.90;;;;;;5083611;28;20033;-83
2021/05/03 06:50:07;;;;;;;9.25;6.97;;;6.80;99.90;;;;;;5072810;28;20056;-83
2021/05/03 06:52:39;;;;;;;8.55;6.60;;;6.90;99.90;;;;;;5072945;28;20029;-83
2021/05/03 06:55:12;;;;;;;8.63;6.50;;;6.90;99.90;;;;;;5077219;28;20028;-84
2021/05/03 06:57:46;;;;;;;8.95;6.65;;;7.00;99.90;;;;;;5073043;28;20040;-83
2021/05/03 07:00:19;;;;;;;11.15;6.65;;;7.10;99.90;;;;;;5073735;28;20085;-83
2021/05/03 07:02:53;;;;;;;8.73;5.75;;;7.20;99.90;;;;;;5055839;28;20469;-83
2021/05/03 07:05:23;;;;;;;8.55;5.97;;;7.20;99.90;;;;;;5078677;28;20024;-83
2021/05/03 07:07:50;;;;;;;7.18;5.50;;;7.30;99.90;;;;;;5083451;28;20032;-83
2021/05/03 07:10:17;;;;;;;9.38;6.50;;;7.40;99.90;;;;;;5086326;28;20579;-83
2021/05/03 07:12:50;;;;;;;8.35;6.30;;;7.50;99.90;;;;;;5090739;28;20421;-82
2021/05/03 07:15:17;;;;;;;9.27;6.50;;;7.60;99.90;;;;;;5071201;28;20055;-82
2021/05/03 07:17:45;;;;;;;9.20;6.38;;;7.60;99.90;;;;;;5079517;28;20035;-83
2021/05/03 07:20:18;;;;;;;8.77;5.38;;;7.60;99.90;;;;;;5078351;28;20174;-83
2021/05/03 07:22:47;;;;;;;8.20;5.57;;;7.70;99.90;;;;;;5088444;28;20114;-83
2021/05/03 07:25:16;;;;;;;7.82;5.88;;;7.90;99.90;;;;;;5089339;28;20088;-83
2021/05/03 07:27:46;;;;;;;7.55;5.25;;;8.00;99.90;;;;;;5077912;28;20012;-84
2021/05/03 07:30:22;;;;;;;7.88;6.03;;;8.10;99.90;;;;;;5063142;28;20473;-84
2021/05/03 07:32:55;;;;;;;8.80;6.05;;;8.20;99.90;;;;;;5079823;28;20169;-83
2021/05/03 07:35:22;;;;;;;8.10;5.28;;;8.30;99.90;;;;;;5082817;28;20028;-85
2021/05/03 07:37:59;;;;;;;10.13;7.22;;;8.30;99.90;;;;;;5072600;28;20107;-85
2021/05/03 07:40:47;;;;;;;8.88;6.07;;;8.50;99.90;;;;;;5076969;28;20412;-85
2021/05/03 07:43:18;;;;;;;8.70;6.15;;;8.50;99.90;;;;;;5078865;28;20032;-84
2021/05/03 07:45:47;;;;;;;9.85;6.78;;;8.60;99.90;;;;;;5080053;28;20071;-85
2021/05/03 07:48:25;;;;;;;15.13;8.48;;;8.70;99.90;;;;;;5072066;28;20029;-84
2021/05/03 07:50:55;;;;;;;12.13;9.55;;;8.80;99.90;;;;;;5089223;28;20051;-85
2021/05/03 07:53:31;;;;;;;13.10;10.15;;;8.90;99.90;;;;;;5076006;28;20067;-85
2021/05/03 07:56:17;;;;;;;11.75;8.95;;;9.10;99.90;;;;;;5066193;28;20542;-86
2021/05/03 07:58:50;;;;;;;11.93;9.57;;;9.30;99.90;;;;;;5073579;28;20036;-85
2021/05/03 08:01:21;;;;;;;;;;;9.50;99.90;;;;;;5075230;28;20028;-85
2021/05/03 08:03:52;;;;;;;13.40;10.15;;;9.60;99.90;;;;;;5082363;28;19916;-86
2021/05/03 08:06:27;;;;;;;14.52;10.98;;;9.70;99.70;;;;;;5080906;28;20029;-85
2021/05/03 08:08:55;;;;;;;14.15;10.65;;;9.90;99.70;;;;;;5082251;28;20028;-85
2021/05/03 08:11:22;;;;;;;16.42;13.20;;;10.00;99.70;;;;;;5079977;28;20062;-84
2021/05/03 08:13:50;;;;;;;20.15;14.25;;;10.10;99.40;;;;;;5082373;28;20150;-86
2021/05/03 08:16:26;;;;;;;21.02;14.55;;;10.10;99.00;;;;;;5083961;28;20090;-85
2021/05/03 08:18:56;;;;;;;20.80;15.90;;;10.20;98.80;;;;;;5082528;28;20113;-85
2021/05/03 08:21:25;;;;;;;19.88;15.02;;;10.30;98.60;;;;;;5076879;28;20032;-86
2021/05/03 08:23:52;;;;;;;19.25;16.10;;;10.40;98.50;;;;;;5077565;28;20032;-84
2021/05/03 08:26:21;;;;;;;19.83;14.73;;;10.40;97.90;;;;;;5067875;28;20032;-85
2021/05/03 08:28:53;;;;;;;16.23;14.10;;;10.50;98.10;;;;;;5080118;28;20052;-87
2021/05/03 08:31:29;;;;;;;19.42;15.43;;;10.60;97.70;;;;;;5065818;28;20044;-86
2021/05/03 08:34:12;;;;;;;19.13;15.38;;;10.60;97.60;;;;;;5082847;28;20068;-86
2021/05/03 08:37:04;;;;;;;19.58;15.43;;;10.70;97.60;;;;;;5083270;28;20016;-87
2021/05/03 08:39:47;;;;;;;17.63;15.13;;;10.90;97.20;;;;;;5082775;28;20043;-88
2021/05/03 08:42:19;;;;;;;17.02;13.65;;;10.90;97.00;;;;;;5064545;28;20279;-88
2021/05/03 08:45:21;;;;;;;17.77;14.43;;;11.00;97.20;;;;;;5074605;28;20089;-87
2021/05/03 08:53:23;;;;;;;18.52;14.32;;;11.30;96.90;;;;;;5079125;28;20408;-88
2021/05/03 08:55:52;;;;;;;20.23;14.40;;;11.40;96.80;;;;;;5087033;28;20023;-90
2021/05/03 08:58:18;;;;;;;18.75;15.30;;;11.50;96.30;;;;;;5089703;28;20032;-89
2021/05/03 09:01:17;;;;;;;18.75;14.52;;;11.50;96.00;;;;;;5077793;28;20539;-87
2021/05/03 09:03:55;;;;;;;16.60;13.77;;;11.70;96.20;;;;;;5076015;28;20028;-89
2021/05/03 09:06:26;;;;;;;19.40;14.23;;;11.80;96.10;;;;;;5076298;28;20491;-89
2021/05/03 09:09:11;;;;;;;18.65;14.85;;;12.00;95.90;;;;;;5094794;28;20022;-88
2021/05/03 09:12:02;;;;;;;17.13;13.80;;;12.10;95.40;;;;;;5087658;28;20040;-89
2021/05/03 09:14:44;;;;;;;16.77;13.73;;;12.10;95.10;;;;;;5076217;28;20024;-89
2021/05/03 09:17:34;;;;;;;19.52;14.38;;;12.10;94.80;;;;;;5077251;28;20182;-88
2021/05/03 09:20:25;;;;;;;17.55;14.23;;;12.20;95.10;;;;;;5093062;28;20033;-86
2021/05/03 09:22:56;;;;;;;18.67;13.82;;;12.30;94.70;;;;;;5086197;28;20035;-88
2021/05/03 09:25:39;;;;;;;17.05;13.30;;;12.50;94.70;;;;;;5083629;28;20149;-89
2021/05/03 09:28:14;;;;;;;16.20;12.65;;;12.70;94.80;;;;;;5083250;28;20029;-87
2021/05/03 09:30:59;;;;;;;16.10;13.07;;;13.00;95.00;;;;;;5084991;28;20082;-88
2021/05/03 09:33:41;;;;;;;16.00;13.07;;;13.20;94.60;;;;;;5084385;28;20043;-88
2021/05/03 09:36:27;;;;;;;13.77;11.27;;;14.00;93.40;;;;;;5080924;28;20032;-87
2021/05/03 09:38:53;;;;;;;16.05;12.63;;;14.90;93.10;;;;;;5074685;28;20127;-88
2021/05/03 09:41:29;;;;;;;14.63;11.50;;;15.60;91.90;;;;;;5075591;28;20118;-86
2021/05/03 09:44:10;;;;;;;16.27;12.13;;;16.20;91.10;;;;;;5074408;28;20013;-86
2021/05/03 09:46:47;;;;;;;11.15;9.95;;;16.60;88.90;;;;;;5074846;28;20050;-85
2021/05/03 09:49:25;;;;;;;13.30;9.98;;;16.90;88.50;;;;;;5079502;28;20024;-86
2021/05/03 09:52:01;;;;;;;15.02;11.90;;;17.40;87.70;;;;;;5087771;28;20044;-88
2021/05/03 09:54:31;;;;;;;12.48;9.95;;;17.30;82.80;;;;;;5080943;28;20032;-86
2021/05/03 09:57:14;;;;;;;13.90;10.65;;;17.10;84.50;;;;;;5079799;28;20484;-87
2021/05/03 09:59:47;;;;;;;16.07;12.63;;;17.00;84.20;;;;;;5081366;28;20025;-87
2021/05/03 10:02:27;;;;;;;12.75;9.60;;;16.50;82.80;;;;;;5082600;28;20021;-86
2021/05/03 10:05:20;;;;;;;12.25;10.27;;;16.10;82.70;;;;;;5084711;28;20110;-85
2021/05/03 10:07:54;;;;;;;13.10;10.55;;;16.00;84.70;;;;;;5085390;28;20024;-86
2021/05/03 10:10:37;;;;;;;14.32;10.98;;;16.00;85.30;;;;;;5085324;28;20097;-86
2021/05/03 10:13:03;;;;;;;13.57;11.07;;;16.20;84.60;;;;;;5082454;28;20050;-85
2021/05/03 10:15:30;;;;;;;13.90;11.30;;;16.50;82.70;;;;;;5085294;28;20016;-86
2021/05/03 10:17:57;;;;;;;12.63;10.43;;;16.70;81.70;;;;;;5084244;28;20052;-86
2021/05/03 10:20:25;;;;;;;12.98;10.25;;;16.70;81.30;;;;;;5081580;28;20027;-87
2021/05/03 10:22:56;;;;;;;11.77;10.45;;;17.00;82.30;;;;;;5083348;28;20060;-87
2021/05/03 10:25:22;;;;;;;12.23;9.35;;;17.30;79.80;;;;;;5088902;28;20096;-86
2021/05/03 10:27:51;;;;;;;11.80;9.73;;;17.50;80.50;;;;;;5086836;28;20122;-85
2021/05/03 10:30:23;;;;;;;11.60;10.40;;;17.60;79.60;;;;;;5081329;28;20060;-85
2021/05/03 10:33:09;;;;;;;12.25;9.50;;;17.60;78.60;;;;;;5081553;28;20028;-87
2021/05/03 10:35:53;;;;;;;12.63;10.23;;;17.30;78.80;;;;;;5082288;28;20043;-86
2021/05/03 10:38:42;;;;;;;11.82;10.52;;;17.10;78.70;;;;;;5084756;28;20068;-86
2021/05/03 10:41:34;;;;;;;13.75;11.13;;;16.90;77.20;;;;;;5080946;28;20051;-88
2021/05/03 10:44:21;;;;;;;13.32;10.73;;;16.60;78.10;;;;;;5079510;28;20540;-86
2021/05/03 10:46:58;;;;;;;11.63;10.38;;;16.30;78.70;;;;;;5081827;28;20028;-86
2021/05/03 10:49:44;;;;;;;12.95;11.40;;;16.20;79.80;;;;;;5079641;28;20039;-86
2021/05/03 10:52:18;;;;;;;12.60;11.10;;;16.10;79.90;;;;;;5079848;28;20028;-83
2021/05/03 10:54:47;;;;;;;;;;;16.10;81.00;;;;;;5082304;28;20029;-85
2021/05/03 10:57:20;;;;;;;13.52;11.10;;;16.00;80.20;;;;;;5084845;28;19904;-84
2021/05/03 11:00:01;;;;;;;13.63;11.02;;;16.30;80.00;;;;;;5083735;28;20077;-82
2021/05/03 11:02:48;;;;;;;13.05;9.73;;;16.40;78.60;;;;;;5079607;28;20078;-84
2021/05/03 11:05:27;;;;;;;11.75;10.43;;;16.40;78.40;;;;;;5085027;28;20080;-84
2021/05/03 11:08:28;;;;;;;11.73;10.43;;;16.60;76.70;;;;;;5080888;28;20108;-84
2021/05/03 11:11:09;;;;;;;12.43;10.10;;;16.50;76.30;;;;;;4984185;28;20047;-86
2021/05/03 11:13:50;;;;;;;11.57;9.90;;;16.50;76.90;;;;;;5002170;28;20073;-84
2021/05/03 11:16:57;;;;;;;11.27;8.75;;;16.70;75.10;;;;;;4996725;28;20041;-86
2021/05/03 11:22:17;;;;;;;10.88;8.38;;;16.20;77.30;;;;;;5083719;28;20021;-84
2021/05/03 11:24:53;;;;;;;11.73;8.95;;;16.60;76.60;;;;;;5082283;28;20465;-87
2021/05/03 11:27:36;;;;;;;9.68;8.18;;;17.10;74.70;;;;;;5081451;28;20111;-85
2021/05/03 11:30:09;;;;;;;8.98;6.68;;;17.30;73.70;;;;;;5080659;28;20491;-86
2021/05/03 11:32:38;;;;;;;9.88;7.85;;;17.10;72.60;;;;;;5082147;28;20099;-84
2021/05/03 11:46:12;;;;;;;8.63;7.28;;;16.40;71.20;;;;;;5082047;28;20536;-83
2021/05/03 11:48:41;;;;;;;10.48;9.38;;;16.30;73.60;;;;;;5078349;28;20028;-85
2021/05/03 11:51:13;;;;;;;8.80;7.70;;;16.20;73.80;;;;;;5079369;28;20037;-85
2021/05/03 11:53:42;;;;;;;10.00;8.80;;;16.40;75.00;;;;;;5080620;28;20441;-86
2021/05/03 11:56:22;;;;;;;8.48;7.45;;;16.70;72.00;;;;;;5078720;28;20044;-86
2021/05/03 11:58:53;;;;;;;8.77;7.70;;;17.00;72.40;;;;;;5083414;28;20433;-85
2021/05/03 12:01:23;;;;;;;9.55;6.25;;;17.40;70.70;;;;;;5080417;28;20032;-83
2021/05/03 12:03:52;;;;;;;9.07;6.22;;;17.40;70.50;;;;;;5078762;28;20016;-85
2021/05/03 12:06:40;;;;;;;8.23;7.32;;;17.30;70.70;;;;;;5078708;28;20119;-84
2021/05/03 12:09:08;;;;;;;7.80;6.70;;;17.30;67.70;;;;;;5079909;28;20470;-85
2021/05/03 12:11:36;;;;;;;7.22;6.50;;;16.90;68.60;;;;;;5081897;28;20119;-85
2021/05/03 12:14:04;;;;;;;9.68;7.13;;;16.50;69.00;;;;;;5080134;28;20020;-83
2021/05/03 12:16:39;;;;;;;7.75;6.60;;;16.20;69.60;;;;;;5082107;28;20020;-85
2021/05/03 12:19:16;;;;;;;8.55;7.57;;;16.30;71.40;;;;;;5079301;28;20035;-84
2021/05/03 12:21:44;;;;;;;8.52;7.35;;;16.40;71.80;;;;;;5082083;28;20031;-84
2021/05/03 12:24:22;;;;;;;12.02;7.85;;;16.40;72.00;;;;;;5060045;28;20044;-85
2021/05/03 12:26:59;;;;;;;8.07;6.70;;;16.30;71.80;;;;;;5077741;28;20020;-85
2021/05/03 12:29:30;;;;;;;9.38;7.55;;;16.30;72.40;;;;;;5078161;28;20048;-85
2021/05/03 12:31:57;;;;;;;8.85;7.82;;;16.30;72.00;;;;;;5077818;28;20025;-85
2021/05/03 12:34:26;;;;;;;9.18;8.07;;;16.10;72.10;;;;;;5078820;28;20012;-84
2021/05/03 12:37:04;;;;;;;7.95;6.43;;;15.90;72.10;;;;;;5075231;28;20028;-84
2021/05/03 12:39:37;;;;;;;10.63;8.82;;;15.80;73.70;;;;;;5077773;28;20363;-85
2021/05/03 12:42:17;;;;;;;11.50;9.45;;;15.90;73.30;;;;;;5080934;28;20020;-85
2021/05/03 12:44:56;;;;;;;11.15;9.40;;;15.90;72.70;;;;;;5080203;28;20024;-83
2021/05/03 12:47:49;;;;;;;10.65;7.75;;;15.80;72.60;;;;;;5081875;28;20336;-84
2021/05/03 12:50:28;;;;;;;10.35;8.55;;;16.40;74.10;;;;;;5081016;28;20013;-85
2021/05/03 12:53:09;;;;;;;10.80;8.65;;;17.40;71.50;;;;;;5079096;28;20058;-85
2021/05/03 12:59:02;;;;;;;8.18;7.30;;;18.10;68.60;;;;;;5079232;28;20032;-85
2021/05/03 13:07:03;;;;;;;8.57;7.68;;;17.70;65.60;;;;;;5067249;28;20032;-85
2021/05/03 13:24:24;;;;;;;9.13;7.25;;;16.60;69.10;;;;;;5070591;28;20043;-85
2021/05/03 13:29:48;;;;;;;8.85;6.93;;;17.30;65.90;;;;;;5071434;28;20051;-84
2021/05/03 13:32:24;;;;;;;7.85;7.05;;;17.00;65.10;;;;;;5072082;28;20039;-84
2021/05/03 13:34:50;;;;;;;9.55;6.97;;;16.80;66.10;;;;;;5080971;28;20042;-83
2021/05/03 13:37:17;;;;;;;9.13;7.00;;;16.60;66.40;;;;;;5069048;28;20024;-83
2021/05/03 13:39:46;;;;;;;8.15;6.80;;;16.60;66.30;;;;;;5081359;28;20111;-85
2021/05/03 13:42:14;;;;;;;9.68;7.05;;;16.60;66.40;;;;;;5074407;28;20090;-84
2021/05/03 13:44:44;;;;;;;10.82;7.45;;;16.60;66.90;;;;;;5076420;28;20031;-84
2021/05/03 13:47:12;;;;;;;9.27;6.60;;;16.50;66.30;;;;;;5074561;28;20032;-83
2021/05/03 13:49:39;;;;;;;7.18;5.43;;;16.40;67.60;;;;;;5054544;28;20561;-83
2021/05/03 13:52:08;;;;;;;8.52;6.57;;;16.50;69.20;;;;;;5081985;28;20551;-84
2021/05/03 13:54:36;;;;;;;7.90;6.75;;;16.60;68.00;;;;;;5075094;28;20028;-84
2021/05/03 13:57:05;;;;;;;6.78;6.07;;;16.50;66.40;;;;;;5056013;28;20426;-85
2021/05/03 13:59:32;;;;;;;8.27;6.63;;;16.50;67.60;;;;;;5083260;28;20085;-85
2021/05/03 14:01:59;;;;;;;6.97;5.70;;;16.50;67.60;;;;;;5081165;28;20105;-84
2021/05/03 14:04:26;;;;;;;7.57;5.32;;;16.60;67.80;;;;;;5063340;28;20016;-84
2021/05/03 14:06:59;;;;;;;7.00;6.07;;;16.90;69.20;;;;;;5079317;28;20396;-85
2021/05/03 14:09:25;;;;;;;9.32;6.75;;;17.20;69.10;;;;;;5047693;28;20036;-84
2021/05/03 14:11:52;;;;;;;9.07;6.65;;;17.30;67.20;;;;;;5075890;28;20147;-84
2021/05/03 14:14:19;;;;;;;9.30;6.30;;;17.40;66.50;;;;;;5079829;28;20540;-83
2021/05/03 14:16:51;;;;;;;8.32;6.60;;;17.30;65.90;;;;;;5072314;28;20025;-86